Time;durP1;ratioP1;P1;durP2;ratioP2;P2;SDS_P1;SDS_P2;PMS_P1;PMS_P2;Temp;Humidity;BMP_temperature;BMP_pressure;BME280_temperature;BME280_humidity;BME280_pressure;Samples;Min_cycle;Max_cycle;Signal;HPM_P1;HPM_P2
2023/08/22 00:00:33;;;;;;;5.30;3.10;;;21.90;81.00;;;;;;5135201;28;20057;-78
2023/08/22 00:02:58;;;;;;;7.97;3.20;;;21.90;81.20;;;;;;5135165;28;20027;-78
2023/08/22 00:05:24;;;;;;;5.07;3.00;;;21.80;81.10;;;;;;5117061;28;20031;-78
2023/08/22 00:07:50;;;;;;;4.97;3.60;;;21.70;81.40;;;;;;5116988;28;20028;-78
2023/08/22 00:10:17;;;;;;;6.72;2.88;;;21.50;82.20;;;;;;5135040;28;20038;-79
2023/08/22 00:12:43;;;;;;;6.30;3.30;;;21.50;82.60;;;;;;5134938;28;20080;-78
2023/08/22 00:15:10;;;;;;;4.95;3.05;;;21.50;82.80;;;;;;5134987;28;20024;-79
2023/08/22 00:17:36;;;;;;;5.60;3.30;;;21.50;82.70;;;;;;5116930;28;20046;-79
2023/08/22 00:20:08;;;;;;;5.45;3.00;;;21.60;82.60;;;;;;5099782;28;20057;-78
2023/08/22 00:22:34;;;;;;;6.13;3.60;;;21.70;82.40;;;;;;5116794;28;20016;-78
2023/08/22 00:24:59;;;;;;;4.53;2.92;;;21.70;82.20;;;;;;5083159;28;20031;-78
2023/08/22 00:27:27;;;;;;;5.60;2.97;;;21.80;82.10;;;;;;5099739;28;20028;-78
2023/08/22 00:29:52;;;;;;;6.28;3.40;;;21.80;82.00;;;;;;5116604;28;20027;-78
2023/08/22 00:32:18;;;;;;;4.13;2.92;;;21.80;82.00;;;;;;5099898;28;20040;-78
2023/08/22 00:34:44;;;;;;;4.43;2.95;;;21.80;81.80;;;;;;5099529;28;20099;-78
2023/08/22 00:37:09;;;;;;;5.57;3.67;;;21.80;82.70;;;;;;5082889;28;20034;-78
2023/08/22 00:39:35;;;;;;;7.47;4.10;;;21.80;82.00;;;;;;5082861;28;20023;-78
2023/08/22 00:42:01;;;;;;;4.80;3.42;;;21.80;82.00;;;;;;5116488;28;20028;-78
2023/08/22 00:44:26;;;;;;;6.13;3.67;;;21.80;82.10;;;;;;5098596;28;20020;-78
2023/08/22 00:46:52;;;;;;;6.03;3.78;;;21.70;82.10;;;;;;5116349;28;20036;-78
2023/08/22 00:49:18;;;;;;;6.00;3.47;;;21.60;81.90;;;;;;5134296;28;20028;-79
2023/08/22 00:51:45;;;;;;;8.18;3.67;;;21.50;82.40;;;;;;5116185;28;20036;-79
2023/08/22 00:54:10;;;;;;;6.10;3.58;;;21.40;83.00;;;;;;5099530;28;20055;-79
2023/08/22 00:56:37;;;;;;;7.18;3.90;;;21.40;83.20;;;;;;5116219;28;20015;-79
2023/08/22 00:59:03;;;;;;;9.43;4.32;;;21.50;83.30;;;;;;5134176;28;20043;-79
2023/08/22 01:01:30;;;;;;;6.82;3.42;;;21.50;83.20;;;;;;5099422;28;20087;-79
2023/08/22 01:03:56;;;;;;;4.68;3.20;;;21.50;83.20;;;;;;5116106;28;20027;-78
2023/08/22 01:06:58;;;;;;;6.82;3.33;;;21.60;83.20;;;;;;5115988;28;20020;-78
2023/08/22 01:09:31;;;;;;;6.32;3.53;;;21.60;82.80;;;;;;5116046;28;20023;-78
2023/08/22 01:12:03;;;;;;;6.20;3.33;;;21.50;82.90;;;;;;5116042;28;20015;-78
2023/08/22 01:14:32;;;;;;;6.35;3.38;;;21.50;83.20;;;;;;5115956;28;20492;-79
2023/08/22 01:16:58;;;;;;;5.45;3.47;;;21.40;83.30;;;;;;5115866;28;20019;-79
2023/08/22 01:19:25;;;;;;;5.25;3.65;;;21.30;83.80;;;;;;5098781;28;20023;-79
2023/08/22 01:21:53;;;;;;;6.63;3.83;;;21.30;83.60;;;;;;5133583;28;20044;-78
2023/08/22 01:24:19;;;;;;;6.78;4.22;;;21.30;83.50;;;;;;5099013;28;20065;-78
2023/08/22 01:26:46;;;;;;;8.48;4.30;;;21.30;83.40;;;;;;5115808;28;20047;-78
2023/08/22 01:29:48;;;;;;;6.05;4.22;;;21.20;83.50;;;;;;5133883;28;20094;-78
2023/08/22 01:32:15;;;;;;;6.17;3.97;;;21.20;83.80;;;;;;5060828;28;20081;-78
2023/08/22 01:34:42;;;;;;;6.65;4.20;;;21.10;84.00;;;;;;5115692;28;20277;-78
2023/08/22 01:37:11;;;;;;;6.70;4.68;;;21.00;85.10;;;;;;5099087;28;20042;-78
2023/08/22 01:39:39;;;;;;;6.88;4.10;;;21.00;84.60;;;;;;5133724;28;20016;-78
2023/08/22 01:42:06;;;;;;;8.27;4.28;;;21.00;84.60;;;;;;5133751;28;20028;-78
2023/08/22 01:44:31;;;;;;;8.07;4.25;;;21.10;84.70;;;;;;5082113;28;20060;-78
2023/08/22 01:46:57;;;;;;;7.53;4.40;;;21.10;84.50;;;;;;5115608;28;20031;-78
2023/08/22 01:49:22;;;;;;;7.03;4.00;;;21.10;84.30;;;;;;5082042;28;20023;-78
2023/08/22 01:51:49;;;;;;;9.25;4.10;;;21.00;84.00;;;;;;5133620;28;20035;-78
2023/08/22 01:54:15;;;;;;;9.73;3.80;;;21.00;85.10;;;;;;5115882;28;20043;-78
2023/08/22 01:56:40;;;;;;;5.05;3.53;;;20.90;84.60;;;;;;5085998;28;20087;-78
2023/08/22 01:59:06;;;;;;;7.03;4.40;;;20.90;84.70;;;;;;5102606;28;20028;-78
2023/08/22 02:01:32;;;;;;;7.55;4.25;;;20.90;84.60;;;;;;5119603;28;20031;-78
2023/08/22 02:04:03;;;;;;;5.82;3.80;;;20.90;84.60;;;;;;5102496;28;20016;-78
2023/08/22 02:06:29;;;;;;;9.77;4.47;;;20.90;84.60;;;;;;5087402;28;20043;-78
2023/08/22 02:08:55;;;;;;;7.00;4.30;;;20.90;84.40;;;;;;5085826;28;20045;-78
2023/08/22 02:11:21;;;;;;;7.38;4.28;;;21.00;84.40;;;;;;5102293;28;20020;-78
2023/08/22 02:13:46;;;;;;;4.97;3.95;;;20.90;84.30;;;;;;5102330;28;20016;-78
2023/08/22 02:16:12;;;;;;;6.95;4.13;;;21.00;84.40;;;;;;5085654;28;20032;-78
2023/08/22 02:18:38;;;;;;;8.70;3.97;;;21.00;84.30;;;;;;5102208;28;20023;-78
2023/08/22 02:21:03;;;;;;;7.45;4.80;;;21.00;84.00;;;;;;5136979;28;20051;-78
2023/08/22 02:23:31;;;;;;;6.63;3.97;;;21.00;84.20;;;;;;5102137;28;20054;-78
2023/08/22 02:25:57;;;;;;;8.07;4.40;;;20.90;84.40;;;;;;5102708;28;20027;-78
2023/08/22 02:28:22;;;;;;;7.18;4.50;;;20.90;84.60;;;;;;5085307;28;20028;-78
2023/08/22 02:30:53;;;;;;;5.93;4.45;;;20.90;84.50;;;;;;5101994;28;20028;-78
2023/08/22 02:33:18;;;;;;;7.18;4.65;;;20.80;84.50;;;;;;5118846;28;20086;-78
2023/08/22 02:35:44;;;;;;;7.10;4.70;;;20.70;84.80;;;;;;5136753;28;20039;-78
2023/08/22 02:38:09;;;;;;;9.27;5.43;;;20.50;85.10;;;;;;5101944;28;20031;-78
2023/08/22 02:40:35;;;;;;;7.88;4.38;;;20.40;85.80;;;;;;5101809;28;20046;-78
2023/08/22 02:43:00;;;;;;;7.78;4.80;;;20.40;86.20;;;;;;5136723;28;20035;-78
2023/08/22 02:45:26;;;;;;;8.02;4.53;;;20.50;86.10;;;;;;5118789;28;20069;-78
2023/08/22 02:47:53;;;;;;;7.55;4.78;;;20.60;86.00;;;;;;5118688;28;20430;-78
2023/08/22 02:50:19;;;;;;;6.07;4.72;;;20.60;86.10;;;;;;5102128;28;20024;-78
2023/08/22 02:52:44;;;;;;;8.02;4.47;;;20.60;86.20;;;;;;5101510;28;20061;-78
2023/08/22 02:55:10;;;;;;;7.40;4.80;;;20.60;86.00;;;;;;5118326;28;20032;-78
2023/08/22 02:57:36;;;;;;;7.68;4.40;;;20.60;85.80;;;;;;5118470;28;20042;-78
2023/08/22 03:00:02;;;;;;;6.15;4.00;;;20.60;85.50;;;;;;5101473;28;20024;-78
2023/08/22 03:02:27;;;;;;;7.22;4.15;;;20.70;86.20;;;;;;5118569;28;20028;-78
2023/08/22 03:04:53;;;;;;;6.50;4.57;;;20.70;85.20;;;;;;5118414;28;20035;-78
2023/08/22 03:07:19;;;;;;;6.28;3.85;;;20.70;85.10;;;;;;5083405;28;20039;-78
2023/08/22 03:09:45;;;;;;;6.45;4.10;;;20.70;85.00;;;;;;5084811;28;20031;-78
2023/08/22 03:12:10;;;;;;;6.65;4.43;;;20.70;84.90;;;;;;5136167;28;20024;-78
2023/08/22 03:14:36;;;;;;;9.05;4.68;;;20.60;84.80;;;;;;5101097;28;20474;-78
2023/08/22 03:17:02;;;;;;;6.72;5.05;;;20.70;85.80;;;;;;5101100;28;20046;-78
2023/08/22 03:19:27;;;;;;;8.00;5.05;;;20.70;85.10;;;;;;5101114;28;20436;-78
2023/08/22 03:21:53;;;;;;;8.40;4.90;;;20.60;84.90;;;;;;5097439;28;20044;-78
2023/08/22 03:24:18;;;;;;;7.63;5.10;;;20.70;84.90;;;;;;5097667;28;20472;-78
2023/08/22 03:26:44;;;;;;;7.55;5.10;;;20.70;84.90;;;;;;5097643;28;20054;-78
2023/08/22 03:29:10;;;;;;;8.13;4.80;;;20.60;84.90;;;;;;5097574;28;20039;-78
2023/08/22 03:31:35;;;;;;;8.27;4.57;;;20.60;85.20;;;;;;5114314;28;20036;-79
2023/08/22 03:34:01;;;;;;;8.10;5.00;;;20.50;85.30;;;;;;5114364;28;20094;-78
2023/08/22 03:36:26;;;;;;;11.68;5.32;;;20.40;85.40;;;;;;5097337;28;20028;-78
2023/08/22 03:38:52;;;;;;;13.68;5.70;;;20.50;85.40;;;;;;5097228;28;20028;-78
2023/08/22 03:41:18;;;;;;;9.27;4.60;;;20.40;85.40;;;;;;5097301;28;20028;-78
2023/08/22 03:43:44;;;;;;;6.50;4.70;;;20.50;85.50;;;;;;5114175;28;20099;-78
2023/08/22 03:46:09;;;;;;;7.82;4.85;;;20.40;85.40;;;;;;5114094;28;20024;-78
2023/08/22 03:48:35;;;;;;;9.05;4.60;;;20.40;86.10;;;;;;5097083;28;20043;-78
2023/08/22 03:51:06;;;;;;;6.47;4.20;;;20.40;85.30;;;;;;5113997;28;20088;-78
2023/08/22 03:53:33;;;;;;;6.15;4.68;;;20.40;85.50;;;;;;5113962;28;20390;-78
2023/08/22 03:55:59;;;;;;;7.53;4.45;;;20.40;85.60;;;;;;5113865;28;20076;-78
2023/08/22 03:58:24;;;;;;;7.88;4.60;;;20.30;85.60;;;;;;5114777;28;20028;-78
2023/08/22 04:00:50;;;;;;;9.52;4.82;;;20.30;85.70;;;;;;5113750;28;20040;-78
2023/08/22 04:03:15;;;;;;;9.98;5.20;;;20.30;85.80;;;;;;5096873;28;20026;-78
2023/08/22 04:05:42;;;;;;;6.75;4.85;;;20.30;85.80;;;;;;5096840;28;20116;-78
2023/08/22 04:08:08;;;;;;;9.82;6.00;;;20.30;85.90;;;;;;5113753;28;20036;-78
2023/08/22 04:10:33;;;;;;;8.82;6.10;;;20.30;86.00;;;;;;5114569;28;20035;-78
2023/08/22 04:12:59;;;;;;;10.13;5.78;;;20.20;86.80;;;;;;5079955;28;20092;-78
2023/08/22 04:15:24;;;;;;;9.40;5.65;;;20.20;85.90;;;;;;5079800;28;20050;-78
2023/08/22 04:17:50;;;;;;;8.88;5.60;;;20.20;85.80;;;;;;5113137;28;20034;-78
2023/08/22 04:20:15;;;;;;;7.53;5.30;;;20.20;85.60;;;;;;5113512;28;20032;-78
2023/08/22 04:22:41;;;;;;;8.20;5.38;;;20.20;85.80;;;;;;5096145;28;20044;-78
2023/08/22 04:25:10;;;;;;;7.03;5.50;;;20.20;85.70;;;;;;5096402;28;20057;-78
2023/08/22 04:27:36;;;;;;;6.72;5.38;;;20.10;85.70;;;;;;5113363;28;20028;-78
2023/08/22 04:30:03;;;;;;;6.30;4.85;;;20.00;85.80;;;;;;5113217;28;20101;-78
2023/08/22 04:32:28;;;;;;;9.10;5.53;;;20.00;86.00;;;;;;5114158;28;20059;-78
2023/08/22 04:34:54;;;;;;;10.60;6.07;;;20.00;86.10;;;;;;5113068;28;20036;-78
2023/08/22 04:37:21;;;;;;;11.15;5.82;;;20.00;86.00;;;;;;5114101;28;20042;-78
2023/08/22 04:39:47;;;;;;;9.60;6.00;;;20.00;86.00;;;;;;5113079;28;20046;-78
2023/08/22 04:42:13;;;;;;;13.38;6.47;;;20.00;85.80;;;;;;5113018;28;20424;-78
2023/08/22 04:44:38;;;;;;;8.68;6.03;;;20.00;85.80;;;;;;5112984;28;20039;-78
2023/08/22 04:47:04;;;;;;;11.07;6.82;;;20.00;85.60;;;;;;5113030;28;20039;-77
2023/08/22 04:49:29;;;;;;;10.23;6.38;;;20.00;85.70;;;;;;5113029;28;20038;-78
2023/08/22 04:51:55;;;;;;;9.77;6.38;;;20.00;85.70;;;;;;5112826;28;20032;-78
2023/08/22 04:54:21;;;;;;;11.05;7.38;;;19.90;85.60;;;;;;5079248;28;20028;-78
2023/08/22 04:56:46;;;;;;;9.30;6.72;;;19.90;85.50;;;;;;5096093;28;20025;-78
2023/08/22 04:59:12;;;;;;;10.35;6.63;;;19.90;85.50;;;;;;5112792;28;20514;-78
2023/08/22 05:01:38;;;;;;;8.43;6.47;;;19.90;85.50;;;;;;5095917;28;20017;-78
2023/08/22 05:04:03;;;;;;;9.85;6.60;;;19.80;85.50;;;;;;5095834;28;20403;-78
2023/08/22 05:06:29;;;;;;;9.98;6.35;;;19.80;85.50;;;;;;5079078;28;20020;-78
2023/08/22 05:08:55;;;;;;;10.05;7.18;;;19.80;85.60;;;;;;5112563;28;20032;-78
2023/08/22 05:11:20;;;;;;;9.70;6.55;;;19.80;85.90;;;;;;5095766;28;20028;-78
2023/08/22 05:13:46;;;;;;;8.88;6.60;;;19.80;86.20;;;;;;5112331;28;20041;-78
2023/08/22 05:16:12;;;;;;;10.90;6.80;;;19.80;86.20;;;;;;5112506;28;20028;-78
2023/08/22 05:18:37;;;;;;;11.73;7.28;;;19.70;86.40;;;;;;5112628;28;20518;-78
2023/08/22 05:21:04;;;;;;;12.50;8.63;;;19.70;86.50;;;;;;5097765;28;20050;-78
2023/08/22 05:23:30;;;;;;;13.27;8.95;;;19.70;86.40;;;;;;5133989;28;20019;-78
2023/08/22 05:25:56;;;;;;;14.40;9.05;;;19.70;86.80;;;;;;5133868;28;20031;-78
2023/08/22 05:28:21;;;;;;;14.57;9.07;;;19.70;87.50;;;;;;5115857;28;20033;-79
2023/08/22 05:30:47;;;;;;;11.98;9.35;;;19.60;87.80;;;;;;5118819;28;20090;-79
2023/08/22 05:33:13;;;;;;;9.75;8.27;;;19.50;88.10;;;;;;5120066;28;20034;-79
2023/08/22 05:35:38;;;;;;;16.13;10.15;;;19.60;88.40;;;;;;5086188;28;20024;-79
2023/08/22 05:38:04;;;;;;;15.32;9.98;;;19.60;88.50;;;;;;5120142;28;20088;-79
2023/08/22 05:40:30;;;;;;;15.77;9.98;;;19.70;88.70;;;;;;5102954;28;20034;-78
2023/08/22 05:42:56;;;;;;;13.75;9.75;;;19.70;88.90;;;;;;5102972;28;20019;-79
2023/08/22 05:45:21;;;;;;;14.48;11.02;;;19.80;89.90;;;;;;5119905;28;20038;-78
2023/08/22 05:47:47;;;;;;;13.48;10.93;;;19.80;89.20;;;;;;5119955;28;20036;-78
2023/08/22 05:50:13;;;;;;;14.05;10.75;;;19.70;89.50;;;;;;5119877;28;20023;-79
2023/08/22 05:52:39;;;;;;;12.88;10.45;;;19.70;90.00;;;;;;5119604;28;20095;-78
2023/08/22 05:55:06;;;;;;;16.25;11.07;;;19.70;90.20;;;;;;5119581;28;20044;-79
2023/08/22 05:57:32;;;;;;;15.30;12.25;;;19.80;90.30;;;;;;5102837;28;20028;-78
2023/08/22 05:59:58;;;;;;;20.58;13.55;;;19.90;90.30;;;;;;5119510;28;20038;-78
2023/08/22 06:02:24;;;;;;;17.52;14.52;;;19.90;90.40;;;;;;5102608;28;20015;-78
2023/08/22 06:04:50;;;;;;;23.90;14.93;;;20.00;90.50;;;;;;5119552;28;20031;-78
2023/08/22 06:07:15;;;;;;;20.27;14.55;;;20.00;90.80;;;;;;5137431;28;20490;-78
2023/08/22 06:09:41;;;;;;;19.67;15.38;;;20.10;90.50;;;;;;5137434;28;20028;-78
2023/08/22 06:12:07;;;;;;;21.17;14.48;;;20.20;90.50;;;;;;5102417;28;20100;-77
2023/08/22 06:14:33;;;;;;;18.88;14.27;;;20.20;90.50;;;;;;5119374;28;20031;-78
2023/08/22 06:16:59;;;;;;;25.13;16.35;;;20.30;90.50;;;;;;5119316;28;20055;-78
2023/08/22 06:19:25;;;;;;;19.40;15.75;;;20.30;90.50;;;;;;5102346;28;20123;-78
2023/08/22 06:21:51;;;;;;;19.95;14.68;;;20.40;90.50;;;;;;5102054;28;20066;-80
2023/08/22 06:24:16;;;;;;;23.80;15.85;;;20.40;90.50;;;;;;5102076;28;20027;-80
2023/08/22 06:26:42;;;;;;;20.63;15.75;;;20.50;90.60;;;;;;5137234;28;20047;-79
2023/08/22 06:29:08;;;;;;;20.73;16.17;;;20.50;91.00;;;;;;5118950;28;20047;-78
2023/08/22 06:31:35;;;;;;;22.50;15.05;;;20.60;90.60;;;;;;5119058;28;20034;-78
2023/08/22 06:34:00;;;;;;;18.55;13.93;;;20.60;90.60;;;;;;5101913;28;20122;-78
2023/08/22 06:36:26;;;;;;;22.08;14.25;;;20.70;90.60;;;;;;5118861;28;20023;-78
2023/08/22 06:38:52;;;;;;;17.10;14.10;;;20.60;90.60;;;;;;5101881;28;20016;-79
2023/08/22 06:41:18;;;;;;;19.88;14.55;;;20.70;90.50;;;;;;5118587;28;20031;-78
2023/08/22 06:43:44;;;;;;;22.92;13.77;;;20.70;90.50;;;;;;5118819;28;20024;-78
2023/08/22 06:46:10;;;;;;;20.98;13.80;;;20.80;90.50;;;;;;5101864;28;20024;-78
2023/08/22 06:48:35;;;;;;;19.75;14.00;;;20.80;90.60;;;;;;5118719;28;20028;-78
2023/08/22 06:51:01;;;;;;;19.65;13.65;;;20.90;90.80;;;;;;5101740;28;20027;-78
2023/08/22 06:53:27;;;;;;;20.85;13.07;;;20.90;90.60;;;;;;5118812;28;20522;-77
2023/08/22 06:55:54;;;;;;;22.55;13.65;;;20.90;90.40;;;;;;5118557;28;20038;-78
2023/08/22 06:58:20;;;;;;;25.83;13.10;;;20.90;90.50;;;;;;5118444;28;20020;-80
2023/08/22 07:00:45;;;;;;;21.83;13.35;;;21.00;90.50;;;;;;5136412;28;20406;-78
2023/08/22 07:03:11;;;;;;;15.75;11.50;;;21.00;90.40;;;;;;5101609;28;20023;-78
2023/08/22 07:05:37;;;;;;;22.70;13.63;;;21.00;90.50;;;;;;5136326;28;20031;-78
2023/08/22 07:08:03;;;;;;;19.08;13.05;;;21.00;90.50;;;;;;5118426;28;20032;-78
2023/08/22 07:10:29;;;;;;;16.27;10.90;;;21.00;90.60;;;;;;5101385;28;20044;-77
2023/08/22 07:12:55;;;;;;;18.27;11.90;;;21.10;90.30;;;;;;5118273;28;20055;-77
2023/08/22 07:15:21;;;;;;;17.58;10.65;;;21.20;90.30;;;;;;5118012;28;20028;-78
2023/08/22 07:17:47;;;;;;;16.83;9.90;;;21.30;90.10;;;;;;5118002;28;20118;-78
2023/08/22 07:20:13;;;;;;;14.45;10.18;;;21.40;90.40;;;;;;5117989;28;20064;-78
2023/08/22 07:22:39;;;;;;;11.93;8.32;;;21.40;89.40;;;;;;5100947;28;20043;-77
2023/08/22 07:25:05;;;;;;;13.23;8.77;;;21.50;88.80;;;;;;5100824;28;20035;-77
2023/08/22 07:27:31;;;;;;;11.20;7.82;;;21.50;88.70;;;;;;5117798;28;20509;-77
2023/08/22 07:29:56;;;;;;;11.57;8.00;;;21.60;87.70;;;;;;5117913;28;20083;-78
2023/08/22 07:32:22;;;;;;;9.82;6.18;;;21.60;87.50;;;;;;5117783;28;20135;-78
2023/08/22 07:34:48;;;;;;;13.80;7.05;;;21.60;86.40;;;;;;5100531;28;20030;-78
2023/08/22 07:37:14;;;;;;;10.23;6.50;;;21.70;85.60;;;;;;5117648;28;20019;-79
2023/08/22 07:39:41;;;;;;;10.02;6.70;;;21.70;85.40;;;;;;5135673;28;20079;-78
2023/08/22 07:42:07;;;;;;;10.23;6.85;;;21.80;85.30;;;;;;5117444;28;20026;-78
2023/08/22 07:44:32;;;;;;;11.85;7.28;;;21.90;85.20;;;;;;5083895;28;20027;-77
2023/08/22 07:46:58;;;;;;;11.63;8.10;;;22.00;85.50;;;;;;5100452;28;20051;-78
2023/08/22 07:49:27;;;;;;;11.20;7.55;;;22.00;86.00;;;;;;5117478;28;20054;-78
2023/08/22 07:51:52;;;;;;;12.80;7.28;;;22.10;85.50;;;;;;5117113;28;20028;-77
2023/08/22 07:54:18;;;;;;;13.60;6.35;;;22.10;85.70;;;;;;5083413;28;20061;-78
2023/08/22 07:56:47;;;;;;;10.75;5.30;;;22.10;85.10;;;;;;5117075;28;20024;-78
2023/08/22 07:59:13;;;;;;;7.13;4.72;;;22.10;84.00;;;;;;5100823;28;20065;-78
2023/08/22 08:01:39;;;;;;;8.30;4.97;;;22.10;82.80;;;;;;5100190;28;20521;-78
2023/08/22 08:04:05;;;;;;;10.57;4.40;;;22.00;82.90;;;;;;5135199;28;20024;-79
2023/08/22 08:06:35;;;;;;;11.88;4.95;;;22.10;81.80;;;;;;5100316;28;20016;-78
2023/08/22 08:09:03;;;;;;;11.43;6.00;;;22.10;82.60;;;;;;5117093;28;20030;-78
2023/08/22 08:11:29;;;;;;;9.05;5.35;;;22.20;83.10;;;;;;5117367;28;20085;-78
2023/08/22 08:13:55;;;;;;;8.70;5.70;;;22.10;82.50;;;;;;5117085;28;20030;-78
2023/08/22 08:16:21;;;;;;;10.88;6.15;;;22.20;82.90;;;;;;5117070;28;20024;-78
2023/08/22 08:18:46;;;;;;;9.55;6.35;;;22.30;82.90;;;;;;5100108;28;20030;-78
2023/08/22 08:21:12;;;;;;;10.18;5.63;;;22.30;82.20;;;;;;5083036;28;20070;-78
2023/08/22 08:23:38;;;;;;;9.43;5.18;;;22.20;82.00;;;;;;5083266;28;20028;-79
2023/08/22 08:26:05;;;;;;;6.88;5.10;;;22.30;82.60;;;;;;5082974;28;20031;-78
2023/08/22 08:28:31;;;;;;;9.32;5.22;;;22.30;80.90;;;;;;5100372;28;20020;-78
2023/08/22 08:30:57;;;;;;;9.07;5.60;;;22.30;80.80;;;;;;5116659;28;20027;-78
2023/08/22 08:33:22;;;;;;;10.57;5.57;;;22.30;79.90;;;;;;5099683;28;20123;-79
2023/08/22 08:35:48;;;;;;;8.60;5.00;;;22.30;79.70;;;;;;5082791;28;20035;-79
2023/08/22 08:38:14;;;;;;;10.25;5.30;;;22.30;80.80;;;;;;5099580;28;20023;-78
2023/08/22 08:40:42;;;;;;;10.32;5.20;;;22.40;81.30;;;;;;5116602;28;20030;-79
2023/08/22 08:43:08;;;;;;;10.52;5.20;;;22.50;81.20;;;;;;5116526;28;20030;-79
2023/08/22 08:45:34;;;;;;;8.77;5.35;;;22.50;81.10;;;;;;5134418;28;20020;-79
2023/08/22 08:48:02;;;;;;;10.57;5.70;;;22.50;80.80;;;;;;5134414;28;20019;-79
2023/08/22 08:50:28;;;;;;;11.73;5.75;;;22.50;81.70;;;;;;5116745;28;20023;-79
2023/08/22 08:52:54;;;;;;;14.68;5.97;;;22.60;81.10;;;;;;5099719;28;20031;-79
2023/08/22 08:55:19;;;;;;;10.82;5.45;;;22.60;81.10;;;;;;5082551;28;20028;-79
2023/08/22 08:57:46;;;;;;;11.57;5.80;;;22.70;81.10;;;;;;5099427;28;20075;-78
2023/08/22 09:00:15;;;;;;;14.82;5.85;;;22.70;81.60;;;;;;5099567;28;20039;-78
2023/08/22 09:02:40;;;;;;;9.00;5.93;;;22.80;81.40;;;;;;5134226;28;20012;-79
2023/08/22 09:05:06;;;;;;;11.38;5.32;;;22.80;82.30;;;;;;5133260;28;20045;-78
2023/08/22 09:07:32;;;;;;;11.63;6.22;;;22.80;82.30;;;;;;5116256;28;20108;-79
2023/08/22 09:10:00;;;;;;;10.55;6.18;;;22.90;81.90;;;;;;5116122;28;20091;-78
2023/08/22 09:12:33;;;;;;;11.05;6.18;;;22.90;80.70;;;;;;5099576;28;20077;-79
2023/08/22 09:14:59;;;;;;;13.20;6.97;;;23.00;80.10;;;;;;5115891;28;20364;-78
2023/08/22 09:17:28;;;;;;;11.73;6.93;;;23.00;80.00;;;;;;5115927;28;20031;-79
2023/08/22 09:19:53;;;;;;;13.05;7.40;;;23.00;79.40;;;;;;5115879;28;20023;-79
2023/08/22 09:22:19;;;;;;;14.10;7.05;;;23.10;79.50;;;;;;5082170;28;20051;-79
2023/08/22 09:24:53;;;;;;;15.70;7.15;;;23.10;79.10;;;;;;5082522;28;20023;-78
2023/08/22 09:27:25;;;;;;;11.02;6.45;;;23.00;78.30;;;;;;5133868;28;20034;-76
2023/08/22 09:29:51;;;;;;;14.98;7.07;;;23.00;78.30;;;;;;5099531;28;20043;-78
2023/08/22 09:32:21;;;;;;;13.68;6.95;;;23.00;78.90;;;;;;5099082;28;20020;-77
2023/08/22 09:34:56;;;;;;;14.98;7.32;;;22.90;79.00;;;;;;5133645;28;20019;-77
2023/08/22 09:37:35;;;;;;;13.45;7.40;;;23.00;78.80;;;;;;5133756;28;20026;-78
2023/08/22 09:40:07;;;;;;;15.65;7.43;;;23.00;79.30;;;;;;5115976;28;20024;-78
2023/08/22 09:42:37;;;;;;;15.00;7.82;;;23.10;79.50;;;;;;5115732;28;20019;-78
2023/08/22 09:45:04;;;;;;;13.55;8.77;;;23.20;79.40;;;;;;5115648;28;20027;-78
2023/08/22 09:47:31;;;;;;;19.83;8.35;;;23.40;79.50;;;;;;5115735;28;20093;-79
2023/08/22 09:50:03;;;;;;;13.15;7.68;;;23.50;78.90;;;;;;5115625;28;20026;-79
2023/08/22 09:52:30;;;;;;;19.08;8.05;;;23.60;79.50;;;;;;5115699;28;20057;-79
2023/08/22 09:54:57;;;;;;;16.27;8.13;;;23.80;79.30;;;;;;5115588;28;20099;-79
2023/08/22 09:57:26;;;;;;;15.00;8.02;;;23.90;78.40;;;;;;5098646;28;20024;-79
2023/08/22 09:59:51;;;;;;;15.00;8.07;;;24.00;77.30;;;;;;5115544;28;20020;-78
2023/08/22 10:02:21;;;;;;;15.20;7.38;;;24.10;77.20;;;;;;5082019;28;20046;-79
2023/08/22 10:04:47;;;;;;;13.48;7.70;;;24.10;78.70;;;;;;5098963;28;20104;-79
2023/08/22 10:07:13;;;;;;;15.25;8.13;;;24.00;77.30;;;;;;5115650;28;20016;-79
2023/08/22 10:09:40;;;;;;;15.55;8.27;;;24.10;77.30;;;;;;5098672;28;20164;-79
2023/08/22 10:12:11;;;;;;;14.38;7.85;;;24.00;77.50;;;;;;5081971;28;20032;-79
2023/08/22 10:14:56;;;;;;;13.77;7.87;;;24.00;77.80;;;;;;5133480;28;20053;-79
2023/08/22 10:17:26;;;;;;;15.55;7.78;;;24.00;77.50;;;;;;5118960;28;20265;-79
2023/08/22 10:19:51;;;;;;;14.65;7.80;;;24.00;77.40;;;;;;5102190;28;20020;-78
2023/08/22 10:22:17;;;;;;;15.07;8.23;;;24.00;77.60;;;;;;5102050;28;20039;-78
2023/08/22 10:24:47;;;;;;;14.65;7.95;;;24.10;77.50;;;;;;5102213;28;20024;-79
2023/08/22 10:27:15;;;;;;;15.57;7.95;;;24.10;77.70;;;;;;5119079;28;20153;-78
2023/08/22 10:29:46;;;;;;;13.88;9.20;;;24.10;77.40;;;;;;5118940;28;20084;-77
2023/08/22 10:32:11;;;;;;;13.40;7.63;;;24.00;78.20;;;;;;5101894;28;20067;-78
2023/08/22 10:34:40;;;;;;;12.73;7.82;;;24.10;77.70;;;;;;5118679;28;20032;-79
2023/08/22 10:37:25;;;;;;;14.45;7.85;;;24.20;76.80;;;;;;5118764;28;20052;-79
2023/08/22 10:39:52;;;;;;;12.30;7.60;;;24.20;76.80;;;;;;5118741;28;20016;-78
2023/08/22 10:42:18;;;;;;;12.40;7.20;;;24.30;77.00;;;;;;5119066;28;20016;-77
2023/08/22 10:44:52;;;;;;;17.83;7.78;;;24.30;77.30;;;;;;5118744;28;20083;-77
2023/08/22 10:47:26;;;;;;;14.23;7.53;;;24.30;78.20;;;;;;5101637;28;20032;-77
2023/08/22 10:49:56;;;;;;;13.48;7.00;;;24.40;78.50;;;;;;5136675;28;20031;-77
2023/08/22 10:52:29;;;;;;;12.40;6.75;;;24.40;78.10;;;;;;5136669;28;20020;-77
2023/08/22 10:55:01;;;;;;;13.02;7.75;;;24.50;77.80;;;;;;5118300;28;20039;-78
2023/08/22 10:57:28;;;;;;;13.15;6.82;;;24.60;76.60;;;;;;5118487;28;20046;-78
2023/08/22 10:59:59;;;;;;;8.52;5.80;;;24.70;77.30;;;;;;5118273;28;20020;-77
2023/08/22 11:02:30;;;;;;;8.23;3.05;;;24.80;75.80;;;;;;5136435;28;20024;-77
2023/08/22 11:04:58;;;;;;;8.55;3.60;;;24.80;72.00;;;;;;5118627;28;20057;-77
2023/08/22 11:07:25;;;;;;;8.95;3.60;;;24.70;73.00;;;;;;5118583;28;20024;-78
2023/08/22 11:09:51;;;;;;;5.90;3.00;;;24.70;72.90;;;;;;5136071;28;20065;-77
2023/08/22 11:12:21;;;;;;;6.05;2.85;;;24.80;72.10;;;;;;5118176;28;20027;-77
2023/08/22 11:14:49;;;;;;;8.18;3.50;;;24.80;70.80;;;;;;5136010;28;20083;-78
2023/08/22 11:17:16;;;;;;;6.15;2.60;;;24.80;71.30;;;;;;5136179;28;20076;-79
2023/08/22 11:19:42;;;;;;;9.25;3.42;;;24.80;71.50;;;;;;5117978;28;20028;-77
2023/08/22 11:22:08;;;;;;;19.63;5.47;;;24.80;70.90;;;;;;5114274;28;20040;-78
2023/08/22 11:24:34;;;;;;;5.47;2.50;;;24.70;71.50;;;;;;5131496;28;20043;-77
2023/08/22 11:27:03;;;;;;;7.00;3.45;;;24.80;70.30;;;;;;5113731;28;20028;-78
2023/08/22 11:29:38;;;;;;;6.53;2.45;;;24.70;69.50;;;;;;5115337;28;20123;-79
2023/08/22 11:32:04;;;;;;;5.40;2.53;;;24.60;70.50;;;;;;5114488;28;20035;-79
2023/08/22 11:34:29;;;;;;;5.50;2.33;;;24.60;70.70;;;;;;5114190;28;20036;-78
2023/08/22 11:36:55;;;;;;;4.13;2.33;;;24.50;69.40;;;;;;5115310;28;20016;-78
2023/08/22 11:39:21;;;;;;;5.25;1.35;;;24.50;69.20;;;;;;5097462;28;20376;-78
2023/08/22 11:41:46;;;;;;;3.15;1.40;;;24.50;69.50;;;;;;5115198;28;20075;-78
2023/08/22 11:44:12;;;;;;;7.85;1.60;;;24.50;70.00;;;;;;5114317;28;20024;-78
2023/08/22 11:46:40;;;;;;;4.78;1.60;;;24.50;69.30;;;;;;5114087;28;20020;-78
2023/08/22 11:49:07;;;;;;;3.40;1.13;;;24.50;69.10;;;;;;5114086;28;20059;-77
2023/08/22 11:51:32;;;;;;;2.50;1.27;;;24.50;68.50;;;;;;5114212;28;20024;-78
2023/08/22 11:53:58;;;;;;;3.17;1.30;;;24.40;68.80;;;;;;5113863;28;20051;-78
2023/08/22 11:56:24;;;;;;;3.80;1.30;;;24.40;69.80;;;;;;5113908;28;20024;-78
2023/08/22 11:58:53;;;;;;;4.65;1.60;;;24.40;69.90;;;;;;5114831;28;20024;-79
2023/08/22 12:01:23;;;;;;;5.47;1.33;;;24.40;69.40;;;;;;5131128;28;20111;-78
2023/08/22 12:03:53;;;;;;;3.63;1.13;;;24.50;69.70;;;;;;5096962;28;20017;-78
2023/08/22 12:06:19;;;;;;;3.97;1.42;;;24.50;69.20;;;;;;5113631;28;20020;-79
2023/08/22 12:08:54;;;;;;;4.30;1.45;;;24.60;68.00;;;;;;5113806;28;20049;-79
2023/08/22 12:11:25;;;;;;;3.08;1.20;;;24.70;67.70;;;;;;5096758;28;20051;-78
2023/08/22 12:13:51;;;;;;;5.13;1.63;;;24.80;67.20;;;;;;5130559;28;20032;-78
2023/08/22 12:16:16;;;;;;;5.38;1.52;;;24.80;66.90;;;;;;5113468;28;20057;-78
2023/08/22 12:18:42;;;;;;;7.72;1.50;;;24.80;66.80;;;;;;5096486;28;20028;-79
2023/08/22 12:21:08;;;;;;;4.18;1.08;;;24.80;67.40;;;;;;5097027;28;20028;-78
2023/08/22 12:23:33;;;;;;;2.40;1.10;;;24.70;64.50;;;;;;5099963;28;20028;-78
2023/08/22 12:25:59;;;;;;;3.67;1.30;;;24.50;64.90;;;;;;5116770;28;20031;-78
2023/08/22 12:28:24;;;;;;;3.17;1.30;;;24.50;65.50;;;;;;5099817;28;20107;-78
2023/08/22 12:30:50;;;;;;;5.65;1.58;;;24.50;66.50;;;;;;5099818;28;20091;-79
2023/08/22 12:33:17;;;;;;;2.13;0.90;;;24.50;67.70;;;;;;5099713;28;20055;-79
2023/08/22 12:35:43;;;;;;;2.10;1.00;;;24.40;67.70;;;;;;5116537;28;20081;-79
2023/08/22 12:38:08;;;;;;;2.85;1.08;;;24.40;67.70;;;;;;5099625;28;20087;-78